Time;durP1;ratioP1;P1;durP2;ratioP2;P2;SDS_P1;SDS_P2;PMS_P1;PMS_P2;Temp;Humidity;BMP_temperature;BMP_pressure;BME280_temperature;BME280_humidity;BME280_pressure;Samples;Min_cycle;Max_cycle;Signal;HPM_P1;HPM_P2
2022/12/04 00:01:42;;;;;;;12.00;6.43;;;;;;;2.60;100.00;100744.53;6277919;28;20053;-77
2022/12/04 00:04:43;;;;;;;16.67;4.80;;;;;;;2.64;100.00;100745.34;6285608;28;20048;-77
2022/12/04 00:07:44;;;;;;;11.68;5.93;;;;;;;2.63;100.00;100738.47;6276950;28;20049;-77
2022/12/04 00:10:44;;;;;;;11.60;6.13;;;;;;;2.69;100.00;100743.53;6275130;28;20059;-77
2022/12/04 00:13:45;;;;;;;9.30;5.53;;;;;;;2.65;100.00;100744.44;6275170;28;20041;-77
2022/12/04 00:16:46;;;;;;;10.68;6.22;;;;;;;2.68;100.00;100744.41;6276612;28;20045;-77
2022/12/04 00:19:47;;;;;;;16.25;7.45;;;;;;;2.65;100.00;100749.59;6276405;28;20472;-77
2022/12/04 00:22:50;;;;;;;11.30;6.90;;;;;;;2.62;100.00;100755.66;6276202;28;20059;-77
2022/12/04 00:25:52;;;;;;;14.50;6.50;;;;;;;2.61;100.00;100761.72;6276379;28;20662;-77
2022/12/04 00:28:53;;;;;;;11.60;5.85;;;;;;;2.59;100.00;100762.59;6291839;28;20472;-77
2022/12/04 00:31:54;;;;;;;14.93;6.75;;;;;;;2.53;100.00;100761.00;6276230;28;20045;-77
2022/12/04 00:34:54;;;;;;;9.32;5.68;;;;;;;2.53;100.00;100753.25;6293876;28;20495;-77
2022/12/04 00:37:55;;;;;;;9.52;5.05;;;;;;;2.49;100.00;100753.31;6284768;28;20048;-77
2022/12/04 00:40:56;;;;;;;11.20;6.57;;;;;;;2.51;100.00;100759.28;6274849;28;20480;-77
2022/12/04 00:43:58;;;;;;;8.10;5.30;;;;;;;2.52;100.00;100769.59;6276103;28;20047;-77
2022/12/04 00:47:02;;;;;;;6.63;4.72;;;;;;;2.51;100.00;100765.31;6273954;28;20075;-77
2022/12/04 00:50:03;;;;;;;8.57;4.50;;;;;;;2.50;100.00;100765.34;6274980;28;20045;-77
2022/12/04 00:53:05;;;;;;;14.55;5.60;;;;;;;2.48;100.00;100767.94;6275641;28;20124;-77
2022/12/04 00:56:11;;;;;;;13.00;5.68;;;;;;;2.45;100.00;100769.69;6275886;28;20051;-77
2022/12/04 00:59:12;;;;;;;8.75;4.88;;;;;;;2.42;100.00;100763.72;6274356;28;20041;-77
2022/12/04 01:02:13;;;;;;;12.48;5.40;;;;;;;2.44;100.00;100768.00;6274654;28;20045;-77
2022/12/04 01:05:13;;;;;;;11.07;5.50;;;;;;;2.51;100.00;100770.47;6273578;28;20404;-77
2022/12/04 01:08:14;;;;;;;10.07;6.10;;;;;;;2.52;100.00;100772.16;6285616;28;20037;-77
2022/12/04 01:11:16;;;;;;;5.63;4.15;;;;;;;2.54;100.00;100774.72;6274222;28;20053;-77
2022/12/04 01:14:16;;;;;;;13.20;6.57;;;;;;;2.53;100.00;100761.00;6306677;28;20128;-77
2022/12/04 01:17:17;;;;;;;9.80;4.80;;;;;;;2.54;100.00;100760.09;6274366;28;20109;-77
2022/12/04 01:20:18;;;;;;;12.05;5.45;;;;;;;2.53;100.00;100763.56;6273029;28;20049;-77
2022/12/04 01:23:19;;;;;;;11.57;5.50;;;;;;;2.54;100.00;100756.69;6274129;28;20048;-77
2022/12/04 01:26:20;;;;;;;13.77;6.35;;;;;;;2.52;100.00;100767.00;6273012;28;20037;-77
2022/12/04 01:29:21;;;;;;;13.15;6.45;;;;;;;2.46;100.00;100761.94;6272785;28;20056;-77
2022/12/04 01:32:21;;;;;;;11.40;5.35;;;;;;;2.44;100.00;100755.13;6272686;28;20403;-77
2022/12/04 01:35:22;;;;;;;8.32;4.63;;;;;;;2.34;100.00;100744.97;6272706;28;20120;-77
2022/12/04 01:38:26;;;;;;;14.20;5.70;;;;;;;2.34;100.00;100747.53;6284152;28;20132;-78
2022/12/04 01:41:29;;;;;;;7.38;5.03;;;;;;;2.37;100.00;100744.94;6273803;28;20045;-77
2022/12/04 01:44:30;;;;;;;;;;;;;;;2.38;100.00;100748.34;6274091;28;20510;-77
2022/12/04 01:47:31;;;;;;;6.72;3.50;;;;;;;2.39;100.00;100757.78;6273537;28;19925;-77
2022/12/04 01:50:32;;;;;;;13.88;5.65;;;;;;;2.32;100.00;100749.28;6273648;28;20103;-77
2022/12/04 01:53:36;;;;;;;11.55;5.55;;;;;;;2.35;100.00;100751.81;6273348;28;20043;-77
2022/12/04 01:56:42;;;;;;;10.05;5.72;;;;;;;2.35;100.00;100751.00;6272334;28;20068;-77
2022/12/04 01:59:49;;;;;;;7.15;4.43;;;;;;;2.38;100.00;100759.50;6272150;28;20037;-77
2022/12/04 02:02:50;;;;;;;12.05;5.18;;;;;;;2.33;100.00;100742.44;6272174;28;20067;-77
2022/12/04 02:05:50;;;;;;;12.35;6.22;;;;;;;2.35;100.00;100748.41;6273297;28;20053;-77
2022/12/04 02:08:51;;;;;;;9.38;6.30;;;;;;;2.30;100.00;100745.88;6299586;28;20572;-77
2022/12/04 02:12:18;;;;;;;9.20;4.85;;;;;;;2.34;100.00;100755.25;6271637;28;20431;-77
2022/12/04 02:15:38;;;;;;;8.40;4.28;;;;;;;2.28;100.00;100754.50;6271339;28;20037;-77
2022/12/04 02:18:42;;;;;;;12.57;4.97;;;;;;;2.27;100.00;100748.53;6271664;28;20045;-77
2022/12/04 02:21:47;;;;;;;10.27;5.35;;;;;;;2.30;100.00;100747.63;6272988;28;20045;-77
2022/12/04 02:24:57;;;;;;;11.50;4.35;;;;;;;2.30;100.00;100745.03;6271443;28;20083;-78
2022/12/04 02:28:11;;;;;;;10.88;4.57;;;;;;;2.24;100.00;100753.69;6271668;28;20124;-77
2022/12/04 02:31:19;;;;;;;7.63;3.92;;;;;;;2.17;100.00;100746.97;6271283;28;20064;-77
2022/12/04 02:34:33;;;;;;;7.25;4.57;;;;;;;2.17;100.00;100746.97;6272409;28;20041;-77
2022/12/04 02:37:43;;;;;;;10.48;5.65;;;;;;;2.18;100.00;100746.06;6271272;28;20065;-77
2022/12/04 02:40:51;;;;;;;12.35;4.97;;;;;;;2.21;100.00;100751.19;6281300;28;20041;-78
2022/12/04 02:44:02;;;;;;;9.20;5.85;;;;;;;2.17;100.00;100737.50;6272260;28;20067;-77
2022/12/04 02:47:09;;;;;;;8.48;4.75;;;;;;;2.16;100.00;100740.97;6271164;28;20068;-77
2022/12/04 02:50:16;;;;;;;7.00;4.22;;;;;;;2.11;100.00;100736.75;6271787;28;20095;-77
2022/12/04 02:53:22;;;;;;;9.02;4.47;;;;;;;2.13;100.00;100740.16;6271384;28;20052;-73
2022/12/04 02:56:31;;;;;;;9.98;5.72;;;;;;;2.07;100.00;100755.69;6287492;28;20522;-74
2022/12/04 02:59:38;;;;;;;19.23;5.68;;;;;;;2.12;100.00;100751.31;6270862;28;20106;-74
2022/12/04 03:02:58;;;;;;;6.85;5.07;;;;;;;2.07;100.00;100750.56;6270625;28;20124;-74
2022/12/04 03:06:10;;;;;;;19.40;5.13;;;;;;;1.97;100.00;100736.97;6254112;28;20049;-74
2022/12/04 03:09:21;;;;;;;12.82;4.80;;;;;;;2.05;100.00;100734.28;6271871;28;20049;-74
2022/12/04 03:12:45;;;;;;;8.30;5.28;;;;;;;2.00;100.00;100721.47;6281308;28;20470;-74
2022/12/04 03:15:52;;;;;;;6.43;4.57;;;;;;;1.98;100.00;100726.66;6271421;28;20045;-74
2022/12/04 03:18:59;;;;;;;11.20;5.63;;;;;;;1.97;100.00;100740.38;6270268;28;20483;-74
2022/12/04 03:22:06;;;;;;;9.27;5.53;;;;;;;1.94;100.00;100732.72;6270340;28;20037;-74
2022/12/04 03:25:08;;;;;;;7.85;4.43;;;;;;;1.92;100.00;100731.03;6269541;28;20041;-74
2022/12/04 03:28:21;;;;;;;9.00;4.55;;;;;;;1.96;100.00;100723.25;6271476;28;20041;-74
2022/12/04 03:31:31;;;;;;;8.55;4.50;;;;;;;1.97;100.00;100724.09;6269995;28;20087;-74
2022/12/04 03:35:03;;;;;;;11.77;5.15;;;;;;;2.00;100.00;100724.91;6270169;28;20048;-74
2022/12/04 03:38:24;;;;;;;7.43;4.10;;;;;;;2.00;100.00;100721.47;6261925;28;20084;-74
2022/12/04 03:42:03;;;;;;;8.73;4.38;;;;;;;1.97;100.00;100730.06;6262308;28;20068;-74
2022/12/04 03:45:19;;;;;;;8.23;4.45;;;;;;;1.82;100.00;100720.03;6220997;28;20133;-74
2022/12/04 03:48:36;;;;;;;11.23;5.43;;;;;;;1.83;100.00;100724.28;6271173;28;20045;-74
2022/12/04 03:52:01;;;;;;;9.20;4.65;;;;;;;1.76;100.00;100727.81;6271109;28;20068;-74
2022/12/04 03:55:25;;;;;;;9.30;4.53;;;;;;;1.75;100.00;100723.53;6269722;28;20048;-74
2022/12/04 03:58:30;;;;;;;8.95;5.38;;;;;;;1.76;100.00;100730.41;6271046;28;20052;-74
2022/12/04 04:01:40;;;;;;;12.13;5.45;;;;;;;1.69;100.00;100728.75;6269805;28;20568;-74
2022/12/04 04:04:45;;;;;;;10.23;5.38;;;;;;;1.69;100.00;100726.19;6269706;28;20051;-74
2022/12/04 04:07:52;;;;;;;7.35;4.07;;;;;;;1.66;100.00;100727.09;6271044;28;20037;-74
2022/12/04 04:11:01;;;;;;;7.72;5.30;;;;;;;1.66;100.00;100729.66;6269452;28;20055;-74
2022/12/04 04:24:49;;;;;;;8.60;4.38;;;;;;;1.70;100.00;100730.47;6269199;28;20060;-73
2022/12/04 04:27:52;;;;;;;10.35;5.40;;;;;;;1.65;100.00;100727.09;6269398;28;20043;-74
2022/12/04 04:30:57;;;;;;;6.10;4.05;;;;;;;1.57;100.00;100727.22;6270588;28;20083;-74
2022/12/04 04:34:27;;;;;;;6.13;3.97;;;;;;;1.49;100.00;100714.47;6269388;28;20750;-74
2022/12/04 04:37:56;;;;;;;12.95;4.60;;;;;;;1.49;100.00;100722.19;6254682;28;20053;-74
2022/12/04 04:40:59;;;;;;;7.50;4.22;;;;;;;1.40;100.00;100715.44;6275076;28;20147;-74
2022/12/04 04:44:25;;;;;;;7.47;4.88;;;;;;;1.40;100.00;100715.44;6290480;28;20073;-74
2022/12/04 04:47:50;;;;;;;8.00;4.03;;;;;;;1.40;100.00;100714.56;6285907;28;20494;-75
2022/12/04 04:50:52;;;;;;;8.55;4.18;;;;;;;1.39;100.00;100713.72;6275258;28;20741;-75
2022/12/04 04:53:56;;;;;;;7.30;4.50;;;;;;;1.39;100.00;100724.00;6274261;28;20056;-74
2022/12/04 04:56:59;;;;;;;7.72;4.40;;;;;;;1.39;100.00;100728.31;6274060;28;20080;-74
2022/12/04 05:00:06;;;;;;;7.35;4.43;;;;;;;1.35;100.00;100718.94;6274319;28;20048;-74
2022/12/04 05:03:07;;;;;;;6.80;3.78;;;;;;;1.40;100.00;100717.13;6274093;28;20053;-74
2022/12/04 05:06:08;;;;;;;8.48;5.15;;;;;;;1.45;100.00;100724.81;6274011;28;20090;-74
2022/12/04 05:09:09;;;;;;;12.38;5.55;;;;;;;1.41;100.00;100724.84;6273976;28;20128;-74
2022/12/04 05:12:12;;;;;;;12.85;7.63;;;;;;;1.38;100.00;100724.03;6274651;28;20049;-74
2022/12/04 05:15:13;;;;;;;14.32;8.15;;;;;;;1.29;100.00;100716.44;6276260;28;20060;-74
2022/12/04 05:18:13;;;;;;;16.38;6.72;;;;;;;1.27;100.00;100711.31;6282418;28;20041;-74
2022/12/04 05:21:17;;;;;;;11.88;6.30;;;;;;;1.22;100.00;100719.97;6273772;28;20048;-74
2022/12/04 05:24:18;;;;;;;12.70;6.38;;;;;;;1.13;100.00;100721.78;6274721;28;20048;-74
2022/12/04 05:27:19;;;;;;;12.50;5.10;;;;;;;1.14;100.00;100731.16;6273441;28;20450;-74
2022/12/04 05:30:21;;;;;;;7.68;5.25;;;;;;;1.14;100.00;100726.03;6284033;28;20051;-74
2022/12/04 05:33:22;;;;;;;6.78;5.00;;;;;;;1.16;100.00;100724.28;6273804;28;20041;-74
2022/12/04 05:36:22;;;;;;;12.73;6.00;;;;;;;1.22;100.00;100725.09;6273567;28;20048;-74
2022/12/04 05:39:24;;;;;;;9.43;5.95;;;;;;;1.17;100.00;100726.00;6272573;28;20051;-74
2022/12/04 05:42:26;;;;;;;8.73;4.55;;;;;;;1.11;100.00;100730.34;6272541;28;20044;-74
2022/12/04 05:45:27;;;;;;;7.82;4.00;;;;;;;1.07;100.00;100738.97;6272175;28;20040;-74
2022/12/04 05:48:28;;;;;;;9.68;5.47;;;;;;;1.02;100.00;100733.88;6265993;28;20121;-73
2022/12/04 05:51:29;;;;;;;13.73;5.50;;;;;;;1.10;100.00;100739.78;6273206;28;20048;-73
2022/12/04 05:54:30;;;;;;;7.70;4.47;;;;;;;1.09;100.00;100747.50;6273404;28;20541;-74
2022/12/04 05:57:30;;;;;;;7.07;4.15;;;;;;;1.02;100.00;100751.03;6273206;28;20154;-73
2022/12/04 06:00:33;;;;;;;10.98;4.18;;;;;;;0.94;100.00;100749.38;6273270;28;20488;-74
2022/12/04 06:03:34;;;;;;;10.63;5.38;;;;;;;0.89;100.00;100740.03;6272008;28;20045;-74
2022/12/04 06:06:36;;;;;;;9.40;4.70;;;;;;;0.86;100.00;100735.75;6273149;28;20044;-73
2022/12/04 06:09:37;;;;;;;7.88;5.45;;;;;;;0.89;100.00;100743.44;6273012;28;20123;-73
2022/12/04 06:12:40;;;;;;;11.40;5.80;;;;;;;0.86;100.00;100737.47;6271387;28;20049;-73
2022/12/04 06:15:40;;;;;;;9.23;5.82;;;;;;;0.91;100.00;100746.00;6272720;28;20484;-74
2022/12/04 06:18:41;;;;;;;11.70;6.00;;;;;;;0.89;100.00;100734.88;6272886;28;20045;-73
2022/12/04 06:21:43;;;;;;;12.13;6.03;;;;;;;0.93;100.00;100757.13;6281968;28;20547;-74
2022/12/04 06:24:44;;;;;;;13.43;6.85;;;;;;;0.97;100.00;100763.94;6273059;28;20064;-73
2022/12/04 06:27:45;;;;;;;15.18;6.82;;;;;;;0.92;100.00;100760.53;6272594;28;20033;-73
2022/12/04 06:30:45;;;;;;;33.20;11.35;;;;;;;0.94;100.00;100759.66;6287757;28;20056;-74
2022/12/04 06:33:46;;;;;;;51.60;15.45;;;;;;;0.93;100.00;100760.53;6272350;28;20493;-74
2022/12/04 06:36:47;;;;;;;27.90;11.93;;;;;;;0.89;100.00;100765.72;6272326;28;20048;-74
2022/12/04 06:39:48;;;;;;;37.83;12.90;;;;;;;0.93;100.00;100767.41;6270912;28;20609;-74
2022/12/04 06:42:49;;;;;;;33.42;10.48;;;;;;;0.97;100.00;100769.91;6270908;28;20040;-74
2022/12/04 06:46:14;;;;;;;20.23;8.35;;;;;;;0.98;100.00;100773.31;6270853;28;20064;-73
2022/12/04 06:49:15;;;;;;;13.95;6.75;;;;;;;1.08;100.00;100771.53;6272004;28;20491;-74
2022/12/04 06:52:16;;;;;;;10.98;5.68;;;;;;;1.04;100.00;100770.69;6278708;28;20051;-73
2022/12/04 06:55:16;;;;;;;17.02;6.30;;;;;;;0.92;100.00;100774.22;6275111;28;20045;-74
2022/12/04 06:58:22;;;;;;;13.52;6.18;;;;;;;1.03;100.00;100770.69;6271722;28;20048;-74
2022/12/04 07:01:25;;;;;;;14.05;5.25;;;;;;;1.04;100.00;100768.13;6270346;28;20468;-74
2022/12/04 07:04:26;;;;;;;9.40;4.95;;;;;;;1.11;100.00;100774.91;6271755;28;20060;-73
2022/12/04 07:07:26;;;;;;;5.95;4.30;;;;;;;1.17;100.00;100780.00;6270453;28;20045;-74
2022/12/04 07:10:27;;;;;;;8.65;4.97;;;;;;;1.25;100.00;100772.16;6271416;28;20085;-74
2022/12/04 07:13:28;;;;;;;14.20;5.55;;;;;;;1.37;100.00;100769.47;6270376;28;20047;-74
2022/12/04 07:16:30;;;;;;;9.57;6.22;;;;;;;1.41;100.00;100768.56;6253610;28;20495;-74
2022/12/04 07:19:31;;;;;;;11.95;5.50;;;;;;;1.57;100.00;100776.94;6271492;28;20090;-73
2022/12/04 07:22:32;;;;;;;8.20;4.13;;;;;;;1.74;100.00;100778.47;6272621;28;20475;-74
2022/12/04 07:25:32;;;;;;;9.10;5.03;;;;;;;1.79;100.00;100774.97;6278819;28;20123;-74
2022/12/04 07:28:34;;;;;;;10.85;4.65;;;;;;;2.03;100.00;100769.50;6270064;28;20040;-74
2022/12/04 07:31:36;;;;;;;;;;;;;;;2.13;100.00;100771.06;6287362;28;20064;-74
2022/12/04 07:34:37;;;;;;;8.00;3.13;;;;;;;2.27;100.00;100763.97;6270003;28;19965;-74
2022/12/04 07:37:38;;;;;;;7.53;4.18;;;;;;;2.32;100.00;100763.91;6270908;28;20497;-73
2022/12/04 07:40:39;;;;;;;6.35;3.22;;;;;;;2.31;100.00;100757.06;6303380;28;20041;-74
2022/12/04 07:43:40;;;;;;;14.10;4.07;;;;;;;2.51;100.00;100767.91;6270877;28;20145;-74
2022/12/04 07:46:43;;;;;;;11.15;4.82;;;;;;;2.67;100.00;100763.31;6281374;28;20205;-74
2022/12/04 07:49:44;;;;;;;11.07;6.18;;;;;;;2.66;100.00;100765.91;6270461;28;20045;-73
2022/12/04 07:52:44;;;;;;;9.95;5.10;;;;;;;2.74;100.00;100762.34;6286273;28;20472;-73
2022/12/04 07:55:51;;;;;;;10.43;5.18;;;;;;;2.65;100.00;100752.19;6286243;28;20449;-74
2022/12/04 07:58:52;;;;;;;8.93;5.07;;;;;;;2.59;100.00;100763.47;6295810;28;20082;-74
2022/12/04 08:01:55;;;;;;;11.32;6.50;;;;;;;2.89;100.00;100774.09;6294000;28;20048;-74
2022/12/04 08:04:55;;;;;;;13.82;5.95;;;;;;;3.02;100.00;100769.56;6296247;28;20048;-74
2022/12/04 08:07:56;;;;;;;11.27;5.93;;;;;;;3.15;100.00;100765.03;6296636;28;20406;-74
2022/12/04 08:10:57;;;;;;;9.00;5.50;;;;;;;3.19;100.00;100758.94;6294844;28;20056;-74
2022/12/04 08:14:01;;;;;;;23.20;8.20;;;;;;;3.37;100.00;100756.00;6300603;28;20093;-74
2022/12/04 08:17:01;;;;;;;14.45;7.30;;;;;;;3.60;100.00;100754.66;6294344;28;20098;-74
2022/12/04 08:20:02;;;;;;;15.48;7.07;;;;;;;3.81;100.00;100754.22;6283283;28;20076;-74
2022/12/04 08:23:03;;;;;;;13.38;7.10;;;;;;;4.06;100.00;100753.69;6274267;28;20056;-74
2022/12/04 08:26:05;;;;;;;10.98;6.00;;;;;;;4.01;100.00;100752.91;6283842;28;20124;-74
2022/12/04 08:29:06;;;;;;;8.90;5.50;;;;;;;4.06;100.00;100747.66;6299132;28;20052;-76
2022/12/04 08:32:10;;;;;;;7.97;5.43;;;;;;;4.37;100.00;100755.53;6282933;28;20083;-77
2022/12/04 08:35:13;;;;;;;13.48;7.78;;;;;;;4.62;100.00;100751.44;6288920;28;20398;-77
2022/12/04 08:38:14;;;;;;;15.80;6.97;;;;;;;4.95;100.00;100758.38;6298816;28;20040;-77
2022/12/04 08:41:19;;;;;;;11.00;5.90;;;;;;;5.13;100.00;100751.88;6282191;28;20055;-78
2022/12/04 08:44:20;;;;;;;16.33;7.78;;;;;;;5.24;100.00;100750.66;6299921;28;20068;-77
2022/12/04 08:47:21;;;;;;;15.25;6.93;;;;;;;5.33;100.00;100740.97;6332467;28;20480;-77
2022/12/04 08:50:21;;;;;;;15.20;6.50;;;;;;;5.39;100.00;100736.44;6299779;28;20075;-77
2022/12/04 08:53:23;;;;;;;14.80;6.85;;;;;;;5.46;100.00;100734.56;6298529;28;20094;-77
2022/12/04 08:56:25;;;;;;;8.40;6.05;;;;;;;5.33;100.00;100738.38;6299615;28;20041;-77
2022/12/04 08:59:26;;;;;;;15.80;6.13;;;;;;;5.46;100.00;100737.16;6299351;28;20580;-77
2022/12/04 09:02:27;;;;;;;14.43;6.75;;;;;;;5.66;100.00;100741.72;6299700;28;20368;-77
2022/12/04 09:21:35;;;;;;;17.98;9.07;;;;;;;5.22;100.00;100721.41;6219999;28;20750;-78
2022/12/04 09:24:38;;;;;;;15.15;8.20;;;;;;;5.53;100.00;100723.13;6218744;28;20502;-78
2022/12/04 09:27:43;;;;;;;12.30;6.85;;;;;;;5.76;100.00;100727.59;6219821;28;20039;-78
2022/12/04 09:30:45;;;;;;;15.43;8.27;;;;;;;5.83;99.82;100730.88;6199874;28;20047;-78
2022/12/04 09:33:46;;;;;;;11.73;6.03;;;;;;;6.24;100.00;100739.97;6194363;28;20051;-78
2022/12/04 09:36:47;;;;;;;11.85;6.60;;;;;;;6.61;98.45;100738.75;6196147;28;20046;-78
2022/12/04 09:39:47;;;;;;;13.90;7.03;;;;;;;6.71;97.07;100733.25;6194694;28;20101;-78
2022/12/04 09:43:01;;;;;;;12.25;8.23;;;;;;;6.86;93.94;100730.97;6209820;28;20459;-78
2022/12/04 09:46:09;;;;;;;12.23;6.47;;;;;;;6.76;93.81;100727.00;6195406;28;20046;-78
2022/12/04 09:49:45;;;;;;;12.85;6.85;;;;;;;6.63;96.07;100723.13;6192889;28;20073;-78
2022/12/04 09:53:10;;;;;;;17.13;7.90;;;;;;;6.77;94.73;100723.50;6244138;28;20490;-78
2022/12/04 09:56:16;;;;;;;10.75;6.47;;;;;;;6.86;93.36;100722.34;6218163;28;20042;-78
2022/12/04 09:59:24;;;;;;;16.13;7.10;;;;;;;6.91;91.13;100724.78;6248297;28;20042;-78
2022/12/04 10:02:35;;;;;;;8.90;5.50;;;;;;;6.92;92.59;100723.88;6193639;28;20060;-78
2022/12/04 10:06:11;;;;;;;13.10;7.55;;;;;;;6.96;93.32;100721.13;6193678;28;20045;-78
2022/12/04 10:09:23;;;;;;;10.98;6.50;;;;;;;7.15;92.45;100716.13;6186749;28;20039;-78
2022/12/04 10:12:57;;;;;;;11.18;6.40;;;;;;;7.24;89.78;100710.59;6193354;28;20069;-78
2022/12/04 10:16:43;;;;;;;15.35;7.50;;;;;;;6.89;90.27;100692.84;6189172;28;20054;-78
2022/12/04 10:20:08;;;;;;;37.10;12.02;;;;;;;7.14;93.07;100690.22;6169636;28;20051;-78
2022/12/04 10:23:17;;;;;;;13.30;6.40;;;;;;;7.00;91.44;100683.81;6176635;28;20522;-78
2022/12/04 10:26:22;;;;;;;23.38;9.32;;;;;;;7.17;92.25;100683.19;6176894;28;20058;-78
2022/12/04 10:29:31;;;;;;;13.00;6.32;;;;;;;7.35;88.64;100686.84;6209538;28;20082;-78
2022/12/04 10:32:36;;;;;;;14.10;7.00;;;;;;;7.14;87.99;100678.09;6154239;29;20460;-78
2022/12/04 10:35:42;;;;;;;12.18;7.03;;;;;;;7.15;89.95;100677.19;6152769;29;20052;-78
2022/12/04 10:38:54;;;;;;;11.32;6.82;;;;;;;7.28;91.85;100672.38;6152921;29;20047;-78
2022/12/04 10:42:10;;;;;;;14.52;7.28;;;;;;;7.41;91.23;100671.03;6154172;29;20043;-78
2022/12/04 10:45:12;;;;;;;13.60;7.32;;;;;;;7.50;89.13;100674.19;6153946;29;20487;-78
2022/12/04 10:48:25;;;;;;;13.40;8.07;;;;;;;7.49;89.57;100667.28;6154158;29;20399;-78
2022/12/04 10:51:25;;;;;;;12.35;6.95;;;;;;;7.56;90.05;100658.38;6153760;29;20046;-78
2022/12/04 10:54:29;;;;;;;11.70;7.65;;;;;;;7.59;89.02;100660.84;6152692;29;20477;-78
2022/12/04 10:57:39;;;;;;;14.75;7.35;;;;;;;7.58;90.10;100657.41;6153751;29;20058;-78
2022/12/04 11:00:39;;;;;;;11.27;7.55;;;;;;;7.66;88.90;100659.72;6153812;29;20047;-78
2022/12/04 11:03:45;;;;;;;15.43;6.53;;;;;;;7.38;89.74;100652.13;6184939;28;20061;-78
2022/12/04 11:06:48;;;;;;;12.50;7.57;;;;;;;7.21;90.08;100652.78;6184507;28;20039;-78
2022/12/04 11:09:55;;;;;;;15.90;7.43;;;;;;;7.42;88.94;100643.31;6152394;29;20437;-78
2022/12/04 11:12:59;;;;;;;11.73;6.45;;;;;;;7.35;89.05;100640.13;6153237;29;20067;-78
2022/12/04 11:16:00;;;;;;;13.20;6.72;;;;;;;7.44;89.66;100647.53;6153325;29;20055;-78
2022/12/04 11:19:01;;;;;;;11.82;7.28;;;;;;;7.47;89.10;100646.56;6183892;28;20066;-78
2022/12/04 11:22:20;;;;;;;13.48;7.15;;;;;;;7.51;90.13;100636.91;6151878;29;20086;-78
2022/12/04 11:25:26;;;;;;;9.98;5.57;;;;;;;7.78;89.46;100643.63;6153040;29;20051;-78
2022/12/04 11:28:30;;;;;;;13.55;7.88;;;;;;;8.00;88.70;100637.56;6151685;29;20138;-78
2022/12/04 11:31:31;;;;;;;14.57;7.50;;;;;;;8.20;90.68;100631.53;6151387;28;20043;-79
2022/12/04 11:34:37;;;;;;;15.48;8.43;;;;;;;8.43;87.15;100626.22;6152223;29;20157;-78
2022/12/04 11:37:38;;;;;;;15.32;8.13;;;;;;;8.16;87.06;100614.38;6135554;29;20070;-78
2022/12/04 11:40:46;;;;;;;20.15;10.30;;;;;;;8.21;87.16;100615.03;6151751;29;20043;-78
2022/12/04 11:43:49;;;;;;;14.25;8.23;;;;;;;8.23;86.83;100618.41;6151479;29;20051;-78
2022/12/04 11:46:54;;;;;;;15.13;7.57;;;;;;;8.26;86.95;100620.88;6152838;29;20059;-79
2022/12/04 11:50:00;;;;;;;10.73;6.55;;;;;;;8.09;87.83;100616.38;6135355;29;20134;-79
2022/12/04 11:53:14;;;;;;;14.02;8.52;;;;;;;8.41;87.42;100609.84;6152613;29;20050;-78
2022/12/04 11:56:27;;;;;;;18.08;7.47;;;;;;;8.42;87.52;100606.34;6151301;29;20463;-78
2022/12/04 12:00:03;;;;;;;13.05;7.00;;;;;;;8.53;86.74;100612.84;6150986;29;20051;-78
2022/12/04 12:03:17;;;;;;;12.10;6.68;;;;;;;8.52;87.43;100606.78;6152402;29;20373;-78
2022/12/04 12:06:30;;;;;;;13.95;7.82;;;;;;;8.46;87.82;100607.91;6150896;29;20040;-78
2022/12/04 12:09:50;;;;;;;12.35;6.97;;;;;;;8.71;88.17;100611.16;6150848;29;20058;-78
2022/12/04 12:12:51;;;;;;;11.13;6.40;;;;;;;8.54;87.56;100602.34;6151050;29;20055;-79
2022/12/04 12:15:54;;;;;;;16.25;7.88;;;;;;;8.61;88.46;100602.94;6151413;29;20047;-79
2022/12/04 12:19:26;;;;;;;15.15;8.45;;;;;;;8.75;89.00;100600.59;6149548;29;20087;-78
2022/12/04 12:22:45;;;;;;;15.98;9.35;;;;;;;8.76;87.98;100599.66;6167241;28;20046;-78
2022/12/04 12:26:02;;;;;;;15.15;7.63;;;;;;;8.79;88.83;100596.94;6172898;28;20098;-78
2022/12/04 12:29:13;;;;;;;13.20;7.20;;;;;;;8.75;87.43;100595.38;6174991;28;20050;-75
2022/12/04 12:32:39;;;;;;;10.85;6.60;;;;;;;8.55;87.97;100585.00;6157528;28;20112;-75
2022/12/04 12:35:58;;;;;;;11.60;7.40;;;;;;;8.08;90.38;100576.53;6153572;28;20066;-74
2022/12/04 12:39:08;;;;;;;16.08;7.80;;;;;;;8.12;93.34;100571.22;6174005;28;20467;-75
2022/12/04 12:42:25;;;;;;;14.85;7.63;;;;;;;7.99;92.05;100579.53;6158179;28;20109;-75
2022/12/04 12:58:15;;;;;;;19.33;11.32;;;;;;;8.09;94.65;100564.38;6395749;27;20377;-76
2022/12/04 13:01:42;;;;;;;14.57;8.88;;;;;;;7.91;93.98;100566.03;6395378;27;20450;-75
2022/12/04 13:04:47;;;;;;;15.32;8.65;;;;;;;7.96;93.83;100561.47;6383408;27;20119;-75
2022/12/04 13:08:04;;;;;;;15.82;8.57;;;;;;;7.95;94.25;100564.13;6393538;27;20046;-76
2022/12/04 13:11:17;;;;;;;14.90;8.52;;;;;;;7.77;96.18;100551.00;6371154;27;20071;-76
2022/12/04 13:14:21;;;;;;;17.45;8.70;;;;;;;7.85;95.46;100553.28;6369395;28;20047;-75
2022/12/04 13:17:36;;;;;;;13.15;7.78;;;;;;;7.65;96.71;100559.31;6388854;27;20111;-75
2022/12/04 13:20:44;;;;;;;16.02;8.07;;;;;;;7.55;97.42;100545.84;6394918;27;20054;-75
2022/12/04 13:24:10;;;;;;;13.52;7.65;;;;;;;7.37;99.58;100536.19;6393445;27;20447;-74
2022/12/04 13:27:27;;;;;;;16.27;8.30;;;;;;;7.38;100.00;100546.53;6388039;27;20104;-75
2022/12/04 13:30:38;;;;;;;13.60;8.40;;;;;;;7.33;100.00;100547.59;6393409;27;20053;-75
2022/12/04 13:33:47;;;;;;;16.98;9.35;;;;;;;7.18;100.00;100547.31;6393442;27;20043;-76
2022/12/04 13:37:26;;;;;;;17.20;9.55;;;;;;;7.17;100.00;100547.38;6410691;27;20069;-76
2022/12/04 13:40:29;;;;;;;11.75;7.70;;;;;;;7.19;100.00;100554.19;6369815;27;20058;-75
2022/12/04 13:43:48;;;;;;;18.48;9.93;;;;;;;7.18;100.00;100551.66;6394075;27;20497;-75
2022/12/04 13:47:03;;;;;;;19.90;8.93;;;;;;;7.03;100.00;100563.47;6364907;27;20043;-75
2022/12/04 13:50:19;;;;;;;14.52;8.68;;;;;;;7.01;100.00;100560.94;6374260;27;20043;-76
2022/12/04 13:53:36;;;;;;;16.40;8.48;;;;;;;7.01;100.00;100570.47;6366226;28;20043;-76
2022/12/04 13:56:39;;;;;;;18.08;9.60;;;;;;;7.03;100.00;100577.28;6363046;28;20061;-76
2022/12/04 13:59:41;;;;;;;13.90;8.73;;;;;;;7.00;100.00;100577.41;6349820;28;20060;-76
2022/12/04 14:02:50;;;;;;;19.37;11.00;;;;;;;6.90;100.00;100581.25;6350655;27;20035;-76
2022/12/04 14:05:51;;;;;;;16.42;10.05;;;;;;;6.80;100.00;100590.28;6350655;28;20043;-76
2022/12/04 14:09:01;;;;;;;20.60;10.65;;;;;;;6.78;100.00;100589.50;6350488;27;20510;-76
2022/12/04 14:12:05;;;;;;;15.93;9.25;;;;;;;6.69;100.00;100582.03;6350941;28;20040;-75
2022/12/04 14:15:21;;;;;;;15.32;8.98;;;;;;;6.65;100.00;100587.34;6349062;28;20119;-75
2022/12/04 14:18:29;;;;;;;17.65;9.57;;;;;;;6.59;100.00;100594.47;6348927;28;20036;-75
2022/12/04 14:21:39;;;;;;;18.75;8.45;;;;;;;6.55;100.00;100605.88;6350191;28;20035;-75
2022/12/04 14:24:40;;;;;;;21.10;10.30;;;;;;;6.47;100.00;100607.91;6331656;28;20164;-76
2022/12/04 14:27:40;;;;;;;17.40;10.10;;;;;;;6.36;100.00;100600.47;6349975;28;20047;-76
2022/12/04 14:30:43;;;;;;;24.52;12.40;;;;;;;6.18;100.00;100604.56;6348641;28;20067;-75
2022/12/04 14:33:57;;;;;;;;;;;;;;;5.96;100.00;100600.09;6348829;28;20168;-76
2022/12/04 14:37:03;;;;;;;24.55;14.35;;;;;;;5.87;100.00;100597.78;6348701;28;19966;-76
2022/12/04 14:40:06;;;;;;;28.10;14.57;;;;;;;5.84;100.00;100582.34;6348272;28;20070;-75
2022/12/04 14:43:19;;;;;;;24.00;13.25;;;;;;;5.80;100.00;100583.34;6348295;28;20394;-75
2022/12/04 14:46:42;;;;;;;22.50;12.90;;;;;;;5.77;100.00;100588.63;6347989;28;20101;-75
2022/12/04 14:50:05;;;;;;;25.83;14.52;;;;;;;5.67;100.00;100587.25;6348146;28;20459;-76
2022/12/04 14:53:24;;;;;;;31.70;15.35;;;;;;;5.62;100.00;100582.19;6359381;27;20036;-76
2022/12/04 14:56:39;;;;;;;25.77;14.60;;;;;;;5.52;100.00;100584.25;6361186;27;20073;-75
2022/12/04 14:59:47;;;;;;;35.83;17.67;;;;;;;5.50;100.00;100592.91;6356371;27;20040;-75
2022/12/04 15:02:53;;;;;;;28.77;17.15;;;;;;;5.46;100.00;100584.44;6355174;27;20490;-75
2022/12/04 15:06:07;;;;;;;25.60;15.02;;;;;;;5.40;100.00;100601.00;6355625;27;20043;-75